Time;durP1;ratioP1;P1;durP2;ratioP2;P2;SDS_P1;SDS_P2;PMS_P1;PMS_P2;Temp;Humidity;BMP_temperature;BMP_pressure;BME280_temperature;BME280_humidity;BME280_pressure;Samples;Min_cycle;Max_cycle;Signal;HPM_P1;HPM_P2
2021/04/16 00:00:22;;;;;;;7.55;5.80;;;2.30;98.40;;;;;;2072715;28;20050;-75
2021/04/16 00:01:23;;;;;;;;;;;2.30;98.40;;;;;;2066381;28;20026;-74
2021/04/16 00:02:24;;;;;;;6.18;5.00;;;2.30;98.60;;;;;;2072666;28;19909;-74
2021/04/16 00:03:25;;;;;;;6.35;5.20;;;2.30;98.70;;;;;;2071931;28;20153;-74
2021/04/16 00:04:26;;;;;;;7.25;5.50;;;2.30;98.50;;;;;;2072157;28;20033;-75
2021/04/16 00:05:27;;;;;;;8.05;5.13;;;2.30;98.40;;;;;;2072513;28;20501;-75
2021/04/16 00:06:27;;;;;;;6.80;5.32;;;2.40;98.70;;;;;;2079913;28;20025;-75
2021/04/16 00:07:28;;;;;;;6.68;5.18;;;2.40;98.60;;;;;;2080240;28;20397;-75
2021/04/16 00:08:32;;;;;;;5.95;5.03;;;2.40;98.60;;;;;;2072765;28;20068;-75
2021/04/16 00:09:33;;;;;;;7.55;5.50;;;2.40;98.70;;;;;;2070071;28;20026;-74
2021/04/16 00:10:41;;;;;;;7.32;5.60;;;2.40;98.40;;;;;;2067503;28;20030;-74
2021/04/16 00:11:43;;;;;;;7.07;5.57;;;2.40;98.40;;;;;;2071880;28;20112;-75
2021/04/16 00:12:43;;;;;;;6.80;5.45;;;2.30;98.30;;;;;;2067716;28;20015;-74
2021/04/16 00:13:45;;;;;;;7.03;5.68;;;2.30;98.50;;;;;;2076231;28;20568;-75
2021/04/16 00:14:46;;;;;;;7.35;5.70;;;2.20;98.50;;;;;;2072479;28;20041;-75
2021/04/16 00:15:47;;;;;;;8.20;6.03;;;2.20;98.40;;;;;;2071291;28;20539;-74
2021/04/16 00:16:48;;;;;;;7.72;5.72;;;2.10;98.50;;;;;;2067099;28;20123;-75
2021/04/16 00:17:49;;;;;;;7.32;5.45;;;2.10;98.70;;;;;;2069301;28;20026;-75
2021/04/16 00:18:50;;;;;;;7.75;5.80;;;2.10;98.90;;;;;;2072559;28;20129;-74
2021/04/16 00:19:51;;;;;;;8.18;6.07;;;2.20;99.00;;;;;;2079937;28;20473;-74
2021/04/16 00:20:51;;;;;;;7.75;5.80;;;2.10;98.90;;;;;;2079894;28;20021;-74
2021/04/16 00:21:52;;;;;;;9.48;6.45;;;2.10;99.00;;;;;;2067205;28;20026;-75
2021/04/16 00:22:53;;;;;;;8.52;6.53;;;2.10;99.10;;;;;;2069999;28;20086;-74
2021/04/16 00:23:53;;;;;;;7.90;6.22;;;2.10;99.20;;;;;;2072531;28;20057;-74
2021/04/16 00:24:54;;;;;;;7.55;6.20;;;2.10;99.20;;;;;;2072429;28;20021;-74
2021/04/16 00:25:55;;;;;;;7.78;6.10;;;2.10;99.10;;;;;;2072368;28;20054;-74
2021/04/16 00:26:56;;;;;;;11.02;6.57;;;2.20;99.20;;;;;;2066831;28;20045;-75
2021/04/16 00:27:58;;;;;;;8.60;6.38;;;2.10;99.20;;;;;;2070375;28;20057;-74
2021/04/16 00:28:58;;;;;;;8.25;6.60;;;2.10;99.10;;;;;;2073024;28;20034;-74
2021/04/16 00:29:59;;;;;;;9.00;7.05;;;2.10;99.20;;;;;;2073232;28;20118;-74
2021/04/16 00:31:13;;;;;;;8.93;7.63;;;2.20;99.30;;;;;;2073165;28;20026;-74
2021/04/16 00:32:13;;;;;;;9.52;7.30;;;2.20;99.40;;;;;;2073171;28;20053;-75
2021/04/16 00:33:14;;;;;;;8.63;7.13;;;2.20;99.30;;;;;;2073146;28;20052;-75
2021/04/16 00:34:15;;;;;;;10.55;7.43;;;2.20;99.30;;;;;;2073025;28;20469;-74
2021/04/16 00:35:15;;;;;;;9.77;7.60;;;2.20;98.90;;;;;;2065245;28;20034;-75
2021/04/16 00:36:16;;;;;;;8.43;7.13;;;2.20;99.00;;;;;;2079911;28;20508;-75
2021/04/16 00:37:16;;;;;;;8.55;6.88;;;2.20;98.90;;;;;;2072641;28;20486;-75
2021/04/16 00:38:18;;;;;;;9.77;7.28;;;2.20;99.00;;;;;;2066094;28;20026;-75
2021/04/16 00:39:21;;;;;;;7.55;6.47;;;2.20;99.10;;;;;;2072952;28;20076;-75
2021/04/16 00:40:26;;;;;;;8.07;6.70;;;2.20;99.20;;;;;;2072760;28;20641;-75
2021/04/16 00:41:29;;;;;;;8.68;6.55;;;2.20;99.10;;;;;;2070156;28;20124;-74
2021/04/16 00:42:30;;;;;;;8.25;6.22;;;2.20;99.10;;;;;;2066661;28;20497;-75
2021/04/16 00:43:33;;;;;;;8.13;6.88;;;2.20;99.10;;;;;;2080446;28;20056;-75
2021/04/16 00:44:34;;;;;;;8.90;7.10;;;2.20;99.20;;;;;;2070405;28;20026;-75
2021/04/16 00:45:36;;;;;;;8.07;6.82;;;2.20;99.30;;;;;;2067677;28;20028;-75
2021/04/16 00:46:56;;;;;;;8.52;6.50;;;2.20;99.40;;;;;;2072154;28;20026;-74
2021/04/16 00:47:59;;;;;;;8.57;6.90;;;2.20;99.40;;;;;;2073800;28;20037;-75
2021/04/16 00:49:03;;;;;;;10.05;7.13;;;2.20;99.20;;;;;;2075741;28;20046;-74
2021/04/16 00:50:11;;;;;;;10.40;8.05;;;2.20;99.20;;;;;;2081083;28;20079;-75
2021/04/16 00:51:26;;;;;;;11.73;7.85;;;2.20;99.20;;;;;;2074530;28;20488;-77
2021/04/16 00:52:30;;;;;;;11.50;8.20;;;2.20;99.20;;;;;;2081980;28;20105;-75
2021/04/16 00:53:33;;;;;;;10.80;8.60;;;2.20;99.30;;;;;;2081801;28;20092;-75
2021/04/16 00:54:39;;;;;;;14.43;8.73;;;2.20;99.10;;;;;;2077686;28;20030;-75
2021/04/16 00:55:40;;;;;;;12.75;9.00;;;2.20;99.10;;;;;;2072519;28;20390;-75
2021/04/16 00:56:41;;;;;;;11.05;8.68;;;2.20;99.40;;;;;;2068425;28;20030;-75
2021/04/16 00:57:42;;;;;;;10.52;8.55;;;2.20;99.50;;;;;;2068259;28;20120;-74
2021/04/16 00:58:42;;;;;;;11.82;8.80;;;2.20;99.50;;;;;;2072413;28;20026;-74
2021/04/16 00:59:48;;;;;;;12.52;9.48;;;2.20;99.60;;;;;;2072327;28;20022;-75
2021/04/16 01:00:52;;;;;;;11.20;9.02;;;2.20;99.40;;;;;;2072285;28;20033;-74
2021/04/16 01:01:54;;;;;;;11.07;9.00;;;2.20;99.50;;;;;;2080012;28;20076;-75
2021/04/16 01:02:55;;;;;;;11.75;9.05;;;2.20;99.60;;;;;;2079646;28;20447;-74
2021/04/16 01:03:56;;;;;;;11.88;9.07;;;2.30;99.50;;;;;;2072202;28;20120;-73
2021/04/16 01:04:56;;;;;;;11.50;8.95;;;2.30;99.60;;;;;;2072213;28;20595;-73
2021/04/16 01:06:10;;;;;;;9.45;8.27;;;2.30;99.40;;;;;;2064899;28;20049;-74
2021/04/16 01:07:11;;;;;;;11.15;8.27;;;2.30;99.30;;;;;;2071949;28;20034;-73
2021/04/16 01:08:12;;;;;;;12.15;8.70;;;2.30;99.40;;;;;;2071970;28;20552;-74
2021/04/16 01:09:13;;;;;;;11.25;8.63;;;2.30;99.10;;;;;;2071509;28;20108;-73
2021/04/16 01:10:14;;;;;;;10.75;8.65;;;2.30;99.10;;;;;;2079704;28;20461;-73
2021/04/16 01:11:15;;;;;;;11.07;8.75;;;2.20;99.00;;;;;;2064362;28;20034;-73
2021/04/16 01:12:16;;;;;;;11.55;8.43;;;2.20;99.00;;;;;;2072029;28;20105;-74
2021/04/16 01:13:19;;;;;;;10.98;8.77;;;2.20;99.10;;;;;;2071361;28;20022;-74
2021/04/16 01:14:20;;;;;;;10.63;8.70;;;2.20;99.40;;;;;;2065087;28;20466;-74
2021/04/16 01:15:30;;;;;;;10.50;8.00;;;2.20;99.40;;;;;;2071942;28;20431;-74
2021/04/16 01:16:32;;;;;;;9.82;7.80;;;2.30;99.50;;;;;;2071757;28;20025;-74
2021/04/16 01:17:33;;;;;;;10.00;7.80;;;2.30;99.30;;;;;;2071324;28;20092;-74
2021/04/16 01:18:37;;;;;;;8.77;7.72;;;2.30;99.20;;;;;;2071443;28;20741;-74
2021/04/16 01:19:55;;;;;;;10.48;8.10;;;2.30;99.20;;;;;;2072021;28;20432;-74
2021/04/16 01:20:58;;;;;;;8.93;7.40;;;2.20;99.00;;;;;;2066457;28;20057;-74
2021/04/16 01:22:16;;;;;;;9.52;7.80;;;2.20;99.10;;;;;;2068834;28;20528;-74
2021/04/16 01:23:23;;;;;;;9.63;8.02;;;2.20;99.40;;;;;;2064562;28;20035;-74
2021/04/16 01:24:32;;;;;;;10.38;8.32;;;2.20;99.20;;;;;;2072013;28;20077;-74
2021/04/16 01:25:33;;;;;;;10.98;8.70;;;2.20;99.30;;;;;;2066598;28;20493;-74
2021/04/16 01:26:37;;;;;;;10.38;8.35;;;2.10;99.20;;;;;;2071727;28;20558;-74
2021/04/16 01:27:38;;;;;;;12.52;9.40;;;2.10;99.40;;;;;;2072054;28;20048;-74
2021/04/16 01:28:39;;;;;;;12.55;9.15;;;2.20;99.50;;;;;;2071503;28;20033;-74
2021/04/16 01:29:45;;;;;;;12.27;9.68;;;2.20;99.60;;;;;;2071452;28;20029;-73
2021/04/16 01:30:56;;;;;;;12.02;9.80;;;2.20;99.70;;;;;;2067693;28;20038;-73
2021/04/16 01:31:56;;;;;;;;;;;2.20;99.80;;;;;;2064328;28;20065;-73
2021/04/16 01:32:57;;;;;;;12.35;9.63;;;2.20;99.80;;;;;;2069569;28;20376;-74
2021/04/16 01:33:58;;;;;;;12.07;10.02;;;2.20;99.60;;;;;;2065983;28;20034;-75
2021/04/16 01:34:59;;;;;;;12.98;10.05;;;2.20;99.50;;;;;;2070039;28;20100;-73
2021/04/16 01:36:00;;;;;;;14.57;10.70;;;2.20;99.30;;;;;;2071642;28;20056;-74
2021/04/16 01:37:01;;;;;;;13.88;10.43;;;2.20;99.20;;;;;;2065455;28;20014;-74
2021/04/16 01:38:04;;;;;;;14.60;10.77;;;2.20;99.40;;;;;;2078018;28;20380;-73
2021/04/16 01:39:05;;;;;;;13.90;10.48;;;2.20;99.40;;;;;;2071466;28;20147;-74
2021/04/16 01:40:09;;;;;;;13.10;10.82;;;2.20;99.30;;;;;;2071367;28;20034;-74
2021/04/16 01:41:13;;;;;;;15.57;11.18;;;2.20;99.40;;;;;;2072076;28;20026;-74
2021/04/16 01:42:14;;;;;;;14.57;11.38;;;2.20;99.40;;;;;;2072038;28;20034;-73
2021/04/16 01:43:36;;;;;;;14.07;11.68;;;2.20;99.40;;;;;;2072036;28;20117;-73
2021/04/16 01:44:37;;;;;;;14.45;10.77;;;2.20;99.40;;;;;;2071071;28;20476;-74
2021/04/16 01:45:38;;;;;;;14.85;11.55;;;2.20;99.60;;;;;;2068082;28;20105;-75
2021/04/16 01:46:54;;;;;;;14.35;11.43;;;2.20;99.60;;;;;;2066510;28;20038;-75
2021/04/16 01:48:00;;;;;;;15.23;11.65;;;2.20;99.40;;;;;;2071482;28;20018;-75
2021/04/16 01:49:01;;;;;;;17.65;12.00;;;2.20;99.50;;;;;;2065626;28;20029;-75
2021/04/16 01:50:02;;;;;;;15.15;12.00;;;2.20;99.50;;;;;;2070539;28;20032;-75
2021/04/16 01:51:03;;;;;;;14.70;11.63;;;2.20;99.50;;;;;;2072141;28;20033;-74
2021/04/16 01:52:06;;;;;;;14.48;11.05;;;2.20;99.60;;;;;;2072052;28;20538;-74
2021/04/16 01:53:07;;;;;;;16.60;11.70;;;2.20;99.60;;;;;;2072019;28;20041;-74
2021/04/16 01:54:21;;;;;;;14.57;11.00;;;2.20;99.60;;;;;;2071538;28;20022;-74
2021/04/16 01:55:22;;;;;;;13.88;11.35;;;2.20;99.60;;;;;;2070537;28;20018;-74
2021/04/16 01:56:22;;;;;;;15.88;12.35;;;2.30;99.50;;;;;;2073939;28;20026;-74
2021/04/16 01:57:35;;;;;;;15.73;12.32;;;2.20;99.40;;;;;;2079104;28;20018;-74
2021/04/16 01:58:36;;;;;;;14.85;12.23;;;2.20;99.20;;;;;;2073549;28;20040;-75
2021/04/16 01:59:38;;;;;;;15.65;12.40;;;2.20;99.60;;;;;;2073178;28;20029;-74
2021/04/16 02:00:39;;;;;;;15.30;12.25;;;2.20;99.60;;;;;;2071047;28;20030;-75
2021/04/16 02:01:43;;;;;;;16.75;13.02;;;2.20;99.70;;;;;;2071393;28;20093;-74
2021/04/16 02:02:43;;;;;;;16.60;12.95;;;2.20;99.90;;;;;;2068153;28;20036;-74
2021/04/16 02:03:44;;;;;;;17.80;12.98;;;2.20;99.80;;;;;;2071471;28;20048;-74
2021/04/16 02:04:45;;;;;;;17.20;13.57;;;2.20;99.80;;;;;;2072454;28;20025;-74
2021/04/16 02:05:46;;;;;;;15.75;12.25;;;2.20;99.70;;;;;;2073233;28;20480;-74
2021/04/16 02:06:47;;;;;;;16.95;13.10;;;2.20;99.80;;;;;;2073511;28;20037;-74
2021/04/16 02:07:48;;;;;;;16.23;12.82;;;2.20;99.90;;;;;;2080998;28;20025;-74
2021/04/16 02:08:49;;;;;;;15.00;12.13;;;2.20;99.90;;;;;;2076187;28;20033;-74
2021/04/16 02:09:50;;;;;;;14.93;11.80;;;2.20;99.90;;;;;;2073663;28;20022;-74
2021/04/16 02:10:50;;;;;;;14.38;11.35;;;2.30;99.80;;;;;;2073534;28;20481;-74
2021/04/16 02:11:51;;;;;;;15.15;11.80;;;2.40;99.60;;;;;;2073428;28;20537;-74
2021/04/16 02:12:52;;;;;;;14.85;11.57;;;2.30;99.40;;;;;;2073434;28;20084;-74
2021/04/16 02:13:53;;;;;;;16.02;12.88;;;2.40;99.50;;;;;;2072951;28;20131;-75
2021/04/16 02:14:54;;;;;;;17.90;13.45;;;2.40;99.20;;;;;;2072822;28;20030;-74
2021/04/16 02:15:55;;;;;;;15.25;12.35;;;2.30;99.10;;;;;;2070685;28;20025;-74
2021/04/16 02:16:59;;;;;;;16.40;13.05;;;2.30;99.40;;;;;;2073322;28;20022;-74
2021/04/16 02:17:59;;;;;;;17.52;13.68;;;2.30;99.40;;;;;;2073474;28;20026;-74
2021/04/16 02:19:00;;;;;;;17.75;13.73;;;2.30;99.40;;;;;;2073174;28;20093;-74
2021/04/16 02:20:15;;;;;;;19.73;14.60;;;2.30;99.40;;;;;;2066555;28;20434;-74
2021/04/16 02:21:15;;;;;;;19.70;14.32;;;2.20;99.30;;;;;;2065697;28;20481;-74
2021/04/16 02:22:19;;;;;;;18.08;14.15;;;2.20;99.50;;;;;;2065354;28;20042;-74
2021/04/16 02:23:20;;;;;;;20.50;15.57;;;2.20;99.70;;;;;;2073300;28;20030;-75
2021/04/16 02:24:22;;;;;;;20.50;15.48;;;2.20;99.70;;;;;;2081288;28;20359;-75
2021/04/16 02:25:22;;;;;;;21.40;15.82;;;2.20;99.80;;;;;;2073408;28;20053;-74
2021/04/16 02:26:23;;;;;;;17.38;13.85;;;2.20;99.90;;;;;;2072753;28;20480;-74
2021/04/16 02:27:25;;;;;;;22.48;15.90;;;2.20;99.90;;;;;;2073251;28;20053;-74
2021/04/16 02:28:26;;;;;;;22.80;16.08;;;2.30;99.90;;;;;;2081150;28;20039;-74
2021/04/16 02:29:27;;;;;;;20.95;15.55;;;2.20;99.70;;;;;;2072810;28;20028;-74
2021/04/16 02:30:31;;;;;;;20.00;15.63;;;2.30;99.90;;;;;;2072955;28;20076;-74
2021/04/16 02:31:31;;;;;;;22.25;16.38;;;2.30;99.70;;;;;;2073354;28;20477;-74
2021/04/16 02:32:32;;;;;;;18.85;15.38;;;2.20;99.80;;;;;;2070083;28;20109;-74
2021/04/16 02:33:33;;;;;;;22.30;16.20;;;2.20;99.80;;;;;;2067441;28;20136;-74
2021/04/16 02:34:34;;;;;;;19.70;14.73;;;2.30;99.80;;;;;;2072639;28;20541;-75
2021/04/16 02:35:34;;;;;;;18.00;14.55;;;2.30;99.80;;;;;;2072757;28;20036;-75
2021/04/16 02:36:35;;;;;;;19.30;14.50;;;2.30;99.70;;;;;;2067936;28;20049;-75
2021/04/16 02:37:36;;;;;;;18.85;14.32;;;2.30;99.70;;;;;;2073339;28;20129;-74
2021/04/16 02:38:37;;;;;;;19.20;14.60;;;2.40;99.70;;;;;;2073256;28;20026;-75
2021/04/16 02:39:39;;;;;;;21.70;14.82;;;2.40;99.60;;;;;;2072739;28;20033;-75
2021/04/16 02:40:39;;;;;;;19.05;13.88;;;2.30;99.50;;;;;;2072852;28;20457;-74
2021/04/16 02:41:40;;;;;;;18.83;13.98;;;2.40;99.50;;;;;;2073345;28;20026;-75
2021/04/16 02:42:41;;;;;;;19.70;14.05;;;2.30;99.50;;;;;;2073327;28;20025;-74
2021/04/16 02:43:41;;;;;;;18.80;14.05;;;2.30;99.40;;;;;;2069459;28;20504;-74
2021/04/16 02:44:43;;;;;;;18.05;14.18;;;2.30;99.40;;;;;;2076580;28;20053;-75
2021/04/16 02:45:44;;;;;;;19.80;14.45;;;2.30;99.50;;;;;;2080318;28;20025;-75
2021/04/16 02:46:45;;;;;;;19.58;14.02;;;2.30;99.60;;;;;;2069052;28;20031;-74
2021/04/16 02:47:46;;;;;;;16.48;13.60;;;2.30;99.60;;;;;;2069565;28;20024;-74
2021/04/16 02:48:46;;;;;;;17.92;13.85;;;2.30;99.60;;;;;;2073251;28;20113;-74
2021/04/16 02:49:47;;;;;;;18.42;13.82;;;2.30;99.50;;;;;;2073351;28;20172;-74
2021/04/16 02:50:49;;;;;;;17.88;13.50;;;2.30;99.60;;;;;;2068630;28;20022;-74
2021/04/16 02:51:50;;;;;;;17.48;13.15;;;2.30;99.70;;;;;;2070012;28;20032;-74
2021/04/16 02:52:50;;;;;;;16.52;12.68;;;2.30;99.60;;;;;;2072602;28;20032;-73
2021/04/16 02:53:51;;;;;;;17.25;12.70;;;2.30;99.50;;;;;;2072674;28;20022;-74
2021/04/16 02:54:52;;;;;;;16.20;12.30;;;2.30;99.50;;;;;;2072104;28;20484;-75
2021/04/16 02:55:52;;;;;;;15.43;11.70;;;2.30;99.50;;;;;;2064034;28;20083;-74
2021/04/16 02:56:55;;;;;;;14.88;11.60;;;2.40;99.50;;;;;;2072488;28;20022;-74
2021/04/16 02:57:55;;;;;;;14.57;11.57;;;2.40;99.60;;;;;;2073092;28;20037;-74
2021/04/16 02:58:57;;;;;;;15.50;11.20;;;2.40;99.40;;;;;;2073240;28;20374;-74
2021/04/16 02:59:58;;;;;;;16.90;12.10;;;2.50;99.50;;;;;;2067048;28;20041;-75
2021/04/16 03:00:59;;;;;;;15.02;11.82;;;2.50;99.30;;;;;;2078618;28;20075;-74
2021/04/16 03:02:00;;;;;;;16.85;12.63;;;2.50;99.30;;;;;;2072576;28;20018;-74
2021/04/16 03:03:01;;;;;;;15.93;12.00;;;2.50;99.30;;;;;;2064547;28;20042;-74
2021/04/16 03:04:01;;;;;;;14.10;11.43;;;2.50;99.20;;;;;;2072638;28;20100;-75
2021/04/16 03:05:02;;;;;;;17.52;12.48;;;2.50;99.10;;;;;;2072634;28;20045;-74
2021/04/16 03:06:04;;;;;;;15.02;11.88;;;2.50;99.10;;;;;;2065449;28;20121;-74
2021/04/16 03:07:05;;;;;;;14.35;10.82;;;2.50;99.00;;;;;;2071249;28;20029;-75
2021/04/16 03:08:05;;;;;;;16.42;12.75;;;2.60;99.00;;;;;;2065612;28;20134;-74
2021/04/16 03:09:07;;;;;;;16.88;12.63;;;2.60;98.90;;;;;;2072196;28;20044;-74
2021/04/16 03:10:10;;;;;;;15.75;11.52;;;2.60;99.00;;;;;;2065667;28;20035;-74
2021/04/16 03:11:11;;;;;;;16.15;11.88;;;2.50;99.10;;;;;;2072838;28;20026;-74
2021/04/16 03:12:12;;;;;;;14.63;11.60;;;2.50;99.00;;;;;;2072448;28;20385;-74
2021/04/16 03:13:13;;;;;;;15.25;12.00;;;2.50;99.20;;;;;;2072577;28;20038;-74
2021/04/16 03:14:13;;;;;;;14.05;10.88;;;2.50;99.20;;;;;;2065090;28;20018;-74
2021/04/16 03:15:14;;;;;;;15.70;11.77;;;2.60;99.20;;;;;;2072429;28;20033;-74
2021/04/16 03:16:16;;;;;;;15.05;11.50;;;2.60;99.00;;;;;;2071563;28;20421;-75
2021/04/16 03:17:16;;;;;;;14.60;11.38;;;2.60;99.00;;;;;;2073015;28;20030;-74
2021/04/16 03:18:18;;;;;;;17.50;12.10;;;2.50;99.10;;;;;;2071957;28;20445;-74
2021/04/16 03:19:19;;;;;;;16.05;12.23;;;2.50;99.20;;;;;;2057104;28;20390;-74
2021/04/16 03:20:22;;;;;;;15.15;11.98;;;2.60;99.30;;;;;;2064394;28;20022;-74
2021/04/16 03:21:23;;;;;;;13.73;11.20;;;2.50;99.20;;;;;;2072437;28;20014;-75
2021/04/16 03:22:24;;;;;;;16.70;12.35;;;2.50;99.20;;;;;;2072451;28;20117;-75
2021/04/16 03:23:25;;;;;;;15.55;12.02;;;2.50;99.40;;;;;;2072577;28;20026;-74
2021/04/16 03:24:25;;;;;;;17.98;12.35;;;2.50;99.40;;;;;;2072438;28;20141;-74
2021/04/16 03:25:26;;;;;;;18.08;12.85;;;2.50;99.30;;;;;;2072612;28;20840;-74
2021/04/16 03:26:27;;;;;;;16.05;12.35;;;2.40;99.40;;;;;;2072743;28;20095;-74
2021/04/16 03:27:27;;;;;;;16.70;12.30;;;2.40;99.30;;;;;;2073082;28;20466;-74
2021/04/16 03:28:28;;;;;;;16.30;12.20;;;2.40;99.30;;;;;;2073062;28;20042;-75
2021/04/16 03:29:29;;;;;;;14.75;11.70;;;2.40;99.40;;;;;;2070728;28;20034;-74
2021/04/16 03:30:31;;;;;;;16.73;11.90;;;2.40;99.40;;;;;;2064990;28;20081;-74
2021/04/16 03:31:32;;;;;;;16.02;12.18;;;2.40;99.40;;;;;;2067709;28;20026;-74
2021/04/16 03:32:33;;;;;;;16.05;11.90;;;2.40;99.70;;;;;;2073047;28;20049;-74
2021/04/16 03:33:34;;;;;;;15.23;11.82;;;2.40;99.70;;;;;;2072397;28;20033;-73
2021/04/16 03:34:35;;;;;;;15.07;11.18;;;2.40;99.60;;;;;;2072333;28;20018;-74
2021/04/16 03:35:35;;;;;;;13.75;10.55;;;2.40;99.60;;;;;;2067925;28;20462;-74
2021/04/16 03:36:36;;;;;;;14.25;10.02;;;2.40;99.50;;;;;;2071889;28;20025;-74
2021/04/16 03:37:37;;;;;;;12.52;9.80;;;2.50;99.40;;;;;;2072278;28;20029;-74
2021/04/16 03:38:37;;;;;;;13.82;10.65;;;2.50;99.10;;;;;;2068130;28;20056;-74
2021/04/16 03:39:38;;;;;;;13.77;10.60;;;2.50;99.00;;;;;;2072925;28;20539;-74
2021/04/16 03:40:41;;;;;;;14.25;10.18;;;2.40;99.00;;;;;;2072759;28;20083;-74
2021/04/16 03:41:42;;;;;;;14.13;9.80;;;2.40;99.10;;;;;;2073008;28;20057;-74
2021/04/16 03:42:42;;;;;;;14.13;10.93;;;2.40;99.20;;;;;;2072869;28;20014;-74
2021/04/16 03:43:44;;;;;;;14.57;10.10;;;2.40;99.40;;;;;;2072835;28;20018;-74
2021/04/16 03:44:44;;;;;;;12.38;9.52;;;2.40;99.40;;;;;;2072875;28;20081;-74
2021/04/16 03:45:45;;;;;;;12.10;9.48;;;2.40;99.40;;;;;;2072732;28;20022;-74
2021/04/16 03:46:46;;;;;;;12.35;9.60;;;2.40;99.40;;;;;;2072312;28;20484;-74
2021/04/16 03:47:47;;;;;;;12.23;9.75;;;2.50;99.30;;;;;;2068195;28;20814;-74
2021/04/16 03:48:48;;;;;;;14.60;9.65;;;2.50;99.30;;;;;;2069454;28;20022;-74
2021/04/16 03:49:48;;;;;;;12.40;9.52;;;2.50;99.30;;;;;;2080546;28;20041;-75
2021/04/16 03:50:49;;;;;;;11.15;8.90;;;2.50;99.30;;;;;;2072362;28;20036;-73
2021/04/16 03:51:51;;;;;;;12.82;9.93;;;2.50;99.30;;;;;;2064300;28;20026;-74
2021/04/16 03:52:52;;;;;;;14.25;9.85;;;2.50;99.30;;;;;;2072091;28;20019;-74
2021/04/16 03:53:52;;;;;;;13.85;10.23;;;2.40;99.10;;;;;;2072103;28;20062;-74
2021/04/16 03:54:54;;;;;;;14.15;10.05;;;2.40;99.20;;;;;;2070443;28;20053;-74
2021/04/16 03:55:56;;;;;;;13.30;10.02;;;2.30;99.30;;;;;;2077513;28;20471;-74
2021/04/16 03:56:56;;;;;;;13.98;10.23;;;2.30;99.50;;;;;;2063926;28;20497;-74
2021/04/16 03:57:57;;;;;;;14.65;10.32;;;2.30;99.50;;;;;;2072001;28;20109;-74
2021/04/16 03:58:58;;;;;;;14.02;9.82;;;2.30;99.60;;;;;;2078382;28;20033;-74
2021/04/16 03:59:58;;;;;;;13.98;9.85;;;2.30;99.60;;;;;;2078253;28;20068;-74
2021/04/16 04:00:59;;;;;;;12.93;9.85;;;2.20;99.70;;;;;;2072579;28;20496;-74
2021/04/16 04:02:00;;;;;;;14.43;10.02;;;2.30;99.60;;;;;;2080171;28;20072;-74
2021/04/16 04:03:01;;;;;;;13.00;9.52;;;2.30;99.70;;;;;;2080167;28;20053;-74
2021/04/16 04:04:02;;;;;;;13.10;9.60;;;2.30;99.60;;;;;;2072701;28;20982;-74
2021/04/16 04:05:04;;;;;;;13.02;9.55;;;2.20;99.50;;;;;;2072085;28;20029;-74
2021/04/16 04:06:06;;;;;;;13.88;10.00;;;2.20;99.50;;;;;;2071662;28;20034;-74
2021/04/16 04:07:06;;;;;;;14.43;9.82;;;2.20;99.70;;;;;;2071966;28;20030;-74
2021/04/16 04:08:08;;;;;;;16.13;9.75;;;2.20;99.70;;;;;;2071752;28;20511;-74
2021/04/16 04:09:09;;;;;;;11.15;9.07;;;2.30;99.90;;;;;;2072452;28;20504;-74
2021/04/16 04:10:10;;;;;;;13.30;8.82;;;2.20;99.90;;;;;;2072071;28;20030;-74
2021/04/16 04:11:11;;;;;;;10.73;8.57;;;2.30;99.90;;;;;;2064594;28;20030;-74
2021/04/16 04:12:12;;;;;;;11.88;8.77;;;2.30;99.90;;;;;;2072396;28;20049;-74
2021/04/16 04:13:14;;;;;;;11.32;8.80;;;2.40;99.80;;;;;;2072625;28;20040;-75
2021/04/16 04:14:15;;;;;;;12.15;9.18;;;2.40;99.70;;;;;;2072638;28;20083;-74
2021/04/16 04:15:19;;;;;;;13.98;8.55;;;2.40;99.80;;;;;;2074740;28;20136;-74
2021/04/16 04:16:19;;;;;;;12.38;8.55;;;2.40;99.80;;;;;;2074245;28;20026;-73
2021/04/16 04:17:25;;;;;;;10.77;8.23;;;2.40;99.80;;;;;;2068023;28;20014;-74
2021/04/16 04:18:27;;;;;;;11.13;9.00;;;2.50;99.70;;;;;;2071608;28;20101;-74
2021/04/16 04:19:29;;;;;;;12.43;8.80;;;2.40;99.40;;;;;;2064830;28;20073;-74
2021/04/16 04:20:32;;;;;;;11.98;9.10;;;2.40;99.40;;;;;;2072291;28;20080;-74
2021/04/16 04:21:32;;;;;;;11.57;9.00;;;2.40;99.40;;;;;;2074628;28;20026;-74
2021/04/16 04:22:33;;;;;;;12.88;9.55;;;2.40;99.40;;;;;;2069854;28;20081;-74
2021/04/16 04:23:35;;;;;;;13.77;9.45;;;2.30;99.40;;;;;;2064491;28;20103;-74
2021/04/16 04:24:35;;;;;;;12.98;9.65;;;2.30;99.90;;;;;;2067038;28;20060;-74
2021/04/16 04:25:36;;;;;;;12.82;9.52;;;2.30;99.70;;;;;;2072555;28;20034;-74
2021/04/16 04:26:37;;;;;;;13.57;10.10;;;2.30;99.70;;;;;;2068194;28;20026;-74
2021/04/16 04:27:37;;;;;;;12.25;9.20;;;2.30;99.80;;;;;;2066721;28;20022;-74
2021/04/16 04:28:38;;;;;;;12.98;9.52;;;2.30;99.80;;;;;;2068646;28;20030;-74
2021/04/16 04:29:39;;;;;;;11.80;9.57;;;2.40;99.80;;;;;;2067865;28;20061;-74
2021/04/16 04:30:40;;;;;;;11.95;9.45;;;2.40;99.70;;;;;;2071909;28;20022;-74
2021/04/16 04:31:47;;;;;;;14.10;9.35;;;2.40;99.70;;;;;;2072031;28;20524;-73
2021/04/16 04:32:48;;;;;;;12.45;9.75;;;2.40;99.60;;;;;;2075327;28;20049;-74
2021/04/16 04:33:48;;;;;;;12.57;9.95;;;2.40;99.50;;;;;;2072594;28;20140;-74
2021/04/16 04:34:49;;;;;;;13.82;9.30;;;2.40;99.50;;;;;;2072654;28;20025;-73
2021/04/16 04:35:50;;;;;;;13.30;9.07;;;2.40;99.90;;;;;;2072197;28;20017;-73
2021/04/16 04:36:53;;;;;;;12.68;9.70;;;2.40;99.60;;;;;;2072463;28;20030;-73
2021/04/16 04:37:54;;;;;;;12.75;9.05;;;2.40;99.50;;;;;;2071955;28;20025;-74
2021/04/16 04:38:55;;;;;;;15.93;10.13;;;2.40;99.30;;;;;;2072001;28;20153;-73
2021/04/16 04:39:55;;;;;;;13.02;9.52;;;2.40;99.40;;;;;;2080101;28;20057;-74
2021/04/16 04:40:56;;;;;;;14.38;10.00;;;2.40;99.50;;;;;;2072722;28;20037;-72
2021/04/16 04:41:57;;;;;;;13.95;10.25;;;2.40;99.70;;;;;;2072277;28;20096;-71
2021/04/16 04:42:58;;;;;;;12.68;9.73;;;2.40;99.60;;;;;;2072301;28;20246;-71
2021/04/16 04:43:58;;;;;;;12.75;9.35;;;2.30;99.50;;;;;;2072349;28;20454;-72
2021/04/16 04:44:59;;;;;;;11.77;9.60;;;2.40;99.50;;;;;;2072340;28;20026;-72
2021/04/16 04:46:00;;;;;;;11.93;8.90;;;2.40;99.40;;;;;;2071978;28;21039;-72
2021/04/16 04:47:00;;;;;;;12.43;9.52;;;2.40;99.40;;;;;;2072220;28;20045;-71
2021/04/16 04:48:02;;;;;;;12.07;9.65;;;2.40;99.30;;;;;;2072238;28;20022;-71
2021/04/16 04:49:04;;;;;;;14.27;9.77;;;2.30;99.70;;;;;;2079718;28;20036;-71
2021/04/16 04:50:07;;;;;;;11.85;9.05;;;2.40;99.60;;;;;;2079676;28;20029;-73
2021/04/16 04:51:07;;;;;;;10.82;8.85;;;2.40;99.60;;;;;;2071670;28;20112;-72
2021/04/16 04:52:23;;;;;;;13.32;9.27;;;2.40;99.50;;;;;;2071661;28;20034;-75
2021/04/16 04:53:23;;;;;;;12.50;9.20;;;2.40;99.50;;;;;;2065267;28;20069;-73
2021/04/16 04:54:24;;;;;;;13.25;9.73;;;2.40;99.60;;;;;;2070851;28;20018;-74
2021/04/16 04:55:30;;;;;;;16.80;10.00;;;2.40;99.40;;;;;;2072296;28;20022;-71
2021/04/16 04:56:31;;;;;;;12.75;9.70;;;2.30;99.50;;;;;;2072265;28;20030;-75
2021/04/16 04:57:31;;;;;;;13.85;10.45;;;2.30;99.50;;;;;;2072794;28;20125;-72
2021/04/16 04:58:32;;;;;;;12.68;9.50;;;2.30;99.60;;;;;;2072628;28;20742;-72
2021/04/16 04:59:32;;;;;;;14.52;10.43;;;2.40;99.70;;;;;;2073359;28;20029;-73
2021/04/16 05:00:33;;;;;;;14.95;9.98;;;2.40;99.60;;;;;;2069795;28;20085;-72
2021/04/16 05:01:34;;;;;;;14.15;10.05;;;2.40;99.40;;;;;;2067154;28;20353;-72
2021/04/16 05:02:35;;;;;;;14.52;10.15;;;2.40;99.30;;;;;;2072239;28;20069;-71
2021/04/16 05:03:36;;;;;;;14.15;10.45;;;2.40;99.40;;;;;;2072226;28;20080;-70
2021/04/16 05:04:36;;;;;;;12.60;9.88;;;2.30;99.50;;;;;;2072212;28;20037;-70
2021/04/16 05:05:37;;;;;;;13.57;9.95;;;2.40;99.60;;;;;;2072042;28;20022;-70
2021/04/16 05:06:38;;;;;;;14.85;10.38;;;2.40;99.40;;;;;;2067836;28;20512;-69
2021/04/16 05:07:38;;;;;;;12.70;9.10;;;2.40;99.60;;;;;;2067049;28;20547;-69
2021/04/16 05:08:39;;;;;;;13.90;10.10;;;2.40;99.60;;;;;;2072288;28;20477;-69
2021/04/16 05:09:40;;;;;;;13.82;10.60;;;2.40;99.40;;;;;;2072168;28;20084;-70
2021/04/16 05:10:40;;;;;;;13.48;10.15;;;2.40;99.40;;;;;;2072164;28;20057;-69
2021/04/16 05:11:41;;;;;;;14.07;10.70;;;2.40;99.40;;;;;;2072236;28;20030;-69
2021/04/16 05:12:42;;;;;;;14.40;10.27;;;2.40;99.40;;;;;;2071962;28;20110;-69
2021/04/16 05:13:42;;;;;;;13.75;10.63;;;2.40;99.50;;;;;;2072134;28;20026;-70
2021/04/16 05:14:43;;;;;;;13.40;10.75;;;2.40;99.50;;;;;;2067495;28;20470;-70
2021/04/16 05:15:44;;;;;;;13.73;10.68;;;2.40;99.50;;;;;;2067186;28;20057;-69
2021/04/16 05:16:45;;;;;;;15.68;10.70;;;2.30;99.50;;;;;;2072039;28;20030;-70
2021/04/16 05:17:46;;;;;;;15.05;11.30;;;2.30;99.40;;;;;;2072101;28;20033;-70
2021/04/16 05:18:48;;;;;;;14.88;11.10;;;2.30;99.60;;;;;;2072188;28;20038;-70
2021/04/16 05:19:49;;;;;;;14.90;11.15;;;2.20;99.70;;;;;;2067702;28;20010;-70
2021/04/16 05:20:50;;;;;;;15.48;11.43;;;2.30;99.80;;;;;;2068938;28;20072;-70